createdAt,value
2019-05-20T00:02:25.930Z,12.17
2019-05-20T00:07:15.317Z,20.50
2019-05-20T00:12:11.243Z,15.67
2019-05-20T00:17:07.306Z,13.03
2019-05-20T00:22:03.335Z,13.30
2019-05-20T00:26:59.259Z,13.67
2019-05-20T00:31:55.195Z,14.97
2019-05-20T00:36:51.116Z,14.93
2019-05-20T00:41:47.848Z,16.50
2019-05-20T00:46:43.787Z,18.60
2019-05-20T00:51:40.731Z,18.03
2019-05-20T00:56:36.754Z,16.63
2019-05-20T01:01:32.898Z,17.87
2019-05-20T01:06:28.828Z,16.47
2019-05-20T01:11:24.763Z,15.80
2019-05-20T01:16:20.725Z,17.37
2019-05-20T01:21:16.748Z,17.23
2019-05-20T01:26:12.830Z,16.40
2019-05-20T01:31:09.047Z,21.93
2019-05-20T01:36:04.977Z,19.87
2019-05-20T01:41:01.415Z,17.03
2019-05-20T01:45:57.358Z,21.30
2019-05-20T01:50:53.290Z,18.90
2019-05-20T01:55:49.219Z,17.83
2019-05-20T02:00:45.149Z,23.23
2019-05-20T02:05:41.073Z,20.07
2019-05-20T02:10:37.011Z,17.10
2019-05-20T02:15:40.913Z,24.30
2019-05-20T02:20:36.880Z,21.40
2019-05-20T02:25:32.774Z,21.60
2019-05-20T02:30:28.799Z,29.03
2019-05-20T02:35:24.729Z,25.30
2019-05-20T02:40:20.764Z,21.30
2019-05-20T02:45:16.921Z,21.83
2019-05-20T02:50:12.954Z,19.80
2019-05-20T02:55:08.997Z,19.57
2019-05-20T03:00:08.514Z,19.20
2019-05-20T03:05:07.674Z,21.43
2019-05-20T03:10:05.519Z,20.00
2019-05-20T03:15:02.357Z,18.33
2019-05-20T03:19:58.284Z,19.07
2019-05-20T03:24:54.218Z,21.10
2019-05-20T03:29:50.251Z,16.67
2019-05-20T03:34:54.012Z,19.80
2019-05-20T03:39:44.029Z,20.63
2019-05-20T03:44:39.986Z,21.83
2019-05-20T03:49:35.911Z,23.30
2019-05-20T03:54:31.848Z,30.67
2019-05-20T03:59:27.791Z,26.50
2019-05-20T04:04:25.157Z,32.73
2019-05-20T04:09:22.113Z,28.93
2019-05-20T04:14:18.115Z,34.13
2019-05-20T04:19:14.036Z,30.93
2019-05-20T04:24:10.185Z,30.00
2019-05-20T04:29:06.133Z,32.03
2019-05-20T04:34:02.165Z,33.97
2019-05-20T04:39:03.243Z,32.83
2019-05-20T04:43:59.214Z,24.87
2019-05-20T04:48:55.159Z,25.97
2019-05-20T04:53:51.080Z,28.67
2019-05-20T04:58:47.007Z,38.67
2019-05-20T05:03:42.936Z,38.00
2019-05-20T05:08:46.407Z,35.90
2019-05-20T05:13:42.430Z,35.03
2019-05-20T05:18:38.362Z,39.33
2019-05-20T05:23:34.398Z,47.83
2019-05-20T05:28:30.332Z,38.37
2019-05-20T05:33:26.267Z,38.37
2019-05-20T05:38:24.678Z,46.77
2019-05-20T05:43:26.730Z,41.00
2019-05-20T05:48:23.364Z,36.00
2019-05-20T05:53:19.293Z,41.10
2019-05-20T05:58:15.245Z,40.17
2019-05-20T06:03:11.229Z,41.27
2019-05-20T06:08:07.162Z,40.77
2019-05-20T06:13:03.337Z,35.30
2019-05-20T06:17:59.315Z,39.33
2019-05-20T06:22:55.619Z,42.37
2019-05-20T06:27:51.545Z,43.50
2019-05-20T06:32:47.475Z,45.20
2019-05-20T06:37:48.499Z,53.10
2019-05-20T06:42:44.527Z,59.50
2019-05-20T06:47:41.264Z,69.20
2019-05-20T06:52:37.208Z,63.87
2019-05-20T06:57:33.125Z,60.40
2019-05-20T07:02:29.063Z,63.77
2019-05-20T07:07:24.988Z,64.17
2019-05-20T07:12:20.932Z,59.90
2019-05-20T07:17:16.857Z,73.87
2019-05-20T07:22:12.778Z,82.60
2019-05-20T07:27:08.705Z,79.97
2019-05-20T07:32:04.641Z,79.93
2019-05-20T07:37:03.836Z,77.33
2019-05-20T07:41:58.490Z,88.90
2019-05-20T07:46:54.600Z,82.23
2019-05-20T07:51:50.810Z,82.00
2019-05-20T07:56:48.542Z,93.63
2019-05-20T08:01:44.466Z,101.87
2019-05-20T08:06:40.393Z,101.27
2019-05-20T08:11:36.327Z,95.70
2019-05-20T08:16:32.655Z,103.50
2019-05-20T08:21:28.580Z,90.97
2019-05-20T08:26:24.622Z,87.30
2019-05-20T08:31:20.547Z,88.57
2019-05-20T08:36:16.484Z,98.00
2019-05-20T08:41:12.421Z,91.63
2019-05-20T08:46:08.391Z,102.83
2019-05-20T08:51:04.314Z,112.77
2019-05-20T08:56:00.283Z,104.10
2019-05-20T09:00:56.379Z,102.33
2019-05-20T09:05:52.305Z,124.27
2019-05-20T09:10:48.240Z,107.50
2019-05-20T09:15:45.427Z,107.80
2019-05-20T09:20:41.941Z,96.83
2019-05-20T09:25:37.928Z,104.33
2019-05-20T09:30:33.866Z,107.20
2019-05-20T09:35:29.996Z,98.47
2019-05-20T09:40:57.014Z,104.20
2019-05-20T09:46:06.210Z,109.40
2019-05-20T09:50:51.802Z,121.43
2019-05-20T09:55:47.727Z,112.53
2019-05-20T10:00:44.958Z,108.40
2019-05-20T10:05:40.919Z,119.47
2019-05-20T10:10:36.830Z,111.50
2019-05-20T10:15:32.952Z,107.33
2019-05-20T10:20:28.875Z,106.53
2019-05-20T10:25:24.920Z,98.83
2019-05-20T10:30:20.952Z,104.47
2019-05-20T10:35:16.892Z,97.87
2019-05-20T10:40:19.499Z,96.70
2019-05-20T10:45:18.754Z,93.40
2019-05-20T10:50:15.009Z,93.37
2019-05-20T10:55:11.626Z,84.83
2019-05-20T11:00:08.060Z,80.47
2019-05-20T11:05:05.200Z,86.90
2019-05-20T11:10:01.345Z,89.87
2019-05-20T11:14:57.265Z,81.67
2019-05-20T11:19:53.200Z,78.77
2019-05-20T11:24:49.196Z,73.70
2019-05-20T11:29:45.126Z,76.17
2019-05-20T11:34:41.095Z,68.80
2019-05-20T11:39:37.093Z,70.20
2019-05-20T11:44:33.044Z,68.70
2019-05-20T11:49:29.510Z,66.27
2019-05-20T11:54:25.556Z,78.10
2019-05-20T11:59:21.490Z,68.20
2019-05-20T12:04:17.418Z,67.87
2019-05-20T12:09:14.629Z,69.00
2019-05-20T12:14:10.626Z,66.20
2019-05-20T12:19:06.555Z,71.43
2019-05-20T12:24:02.595Z,73.63
2019-05-20T12:28:58.523Z,68.27
2019-05-20T12:33:54.455Z,76.17
2019-05-20T12:38:53.337Z,63.83
2019-05-20T12:44:09.962Z,70.93
2019-05-20T12:48:47.654Z,63.20
2019-05-20T12:53:43.614Z,59.20
2019-05-20T12:58:40.149Z,66.70
2019-05-20T13:03:36.087Z,72.37
2019-05-20T13:08:47.018Z,70.07
2019-05-20T13:13:43.148Z,67.97
2019-05-20T13:18:53.473Z,64.57
2019-05-20T13:23:37.043Z,69.87
2019-05-20T13:28:33.021Z,74.30
2019-05-20T13:33:29.308Z,58.20
2019-05-20T13:38:26.189Z,77.57
2019-05-20T13:43:22.217Z,67.80
2019-05-20T13:48:18.199Z,74.10
2019-05-20T13:53:14.160Z,68.07
2019-05-20T13:58:10.790Z,74.67
2019-05-20T14:03:06.985Z,72.97
2019-05-20T14:08:03.130Z,76.53
2019-05-20T14:12:59.129Z,72.60
2019-05-20T14:17:55.049Z,67.17
2019-05-20T14:22:51.049Z,69.90
2019-05-20T14:27:47.056Z,65.13
2019-05-20T14:32:43.127Z,71.93
2019-05-20T14:37:39.043Z,50.17
2019-05-20T14:42:35.588Z,68.30
2019-05-20T14:47:31.531Z,70.27
2019-05-20T14:52:32.760Z,71.63
2019-05-20T14:57:33.966Z,75.17
2019-05-20T15:02:37.595Z,77.70
2019-05-20T15:07:40.553Z,64.80
2019-05-20T15:17:56.849Z,74.07
2019-05-20T15:22:53.498Z,52.87
2019-05-20T15:27:50.518Z,72.67
2019-05-20T15:32:46.547Z,69.23
2019-05-20T15:37:44.567Z,80.90
2019-05-20T15:42:41.482Z,61.50
2019-05-20T15:47:37.546Z,79.03
2019-05-20T15:52:34.134Z,77.50
2019-05-20T15:57:30.063Z,80.77
2019-05-20T16:02:26.001Z,83.43
2019-05-20T16:07:22.034Z,80.43
2019-05-20T16:12:17.969Z,77.30
2019-05-20T16:17:14.070Z,86.23
2019-05-20T16:22:10.005Z,74.67
2019-05-20T16:27:06.186Z,77.37
2019-05-20T16:32:02.378Z,78.00
2019-05-20T16:36:58.333Z,75.50
2019-05-20T16:41:55.000Z,76.30
2019-05-20T16:46:51.051Z,73.67
2019-05-20T16:51:48.939Z,81.03
2019-05-20T16:56:47.775Z,77.93
2019-05-20T17:01:46.539Z,73.00
2019-05-20T17:06:42.503Z,70.30
2019-05-20T17:11:38.516Z,70.50
2019-05-20T17:16:34.438Z,72.30
2019-05-20T17:21:30.957Z,70.93
2019-05-20T17:26:26.927Z,74.07
2019-05-20T17:31:22.964Z,71.53
2019-05-20T17:36:18.899Z,67.20
2019-05-20T17:41:14.828Z,59.97
2019-05-20T17:46:10.951Z,49.50
2019-05-20T17:51:06.883Z,49.70
2019-05-20T17:56:03.056Z,47.30
2019-05-20T18:01:13.801Z,44.63
2019-05-20T18:05:57.604Z,51.23
2019-05-20T18:10:53.636Z,50.87
2019-05-20T18:15:49.558Z,50.70
2019-05-20T18:20:45.498Z,73.70
2019-05-20T18:25:42.549Z,71.53
2019-05-20T18:30:38.479Z,86.20
2019-05-20T18:35:34.416Z,71.63
2019-05-20T18:40:30.450Z,72.90
2019-05-20T18:45:26.420Z,74.60
2019-05-20T18:50:23.494Z,73.67
2019-05-20T18:55:19.416Z,83.10
2019-05-20T19:00:17.384Z,74.33
2019-05-20T19:05:13.612Z,71.57
2019-05-20T19:10:09.860Z,74.70
2019-05-20T19:15:06.123Z,77.03
2019-05-20T19:20:03.443Z,77.40
2019-05-20T19:24:59.414Z,63.23
2019-05-20T19:29:55.505Z,66.20
2019-05-20T19:34:51.435Z,80.60
2019-05-20T19:39:47.367Z,80.87
2019-05-20T19:44:43.327Z,72.00
2019-05-20T19:49:42.322Z,74.80
2019-05-20T19:54:37.193Z,75.13
2019-05-20T19:59:33.119Z,78.17
2019-05-20T20:04:29.050Z,81.07
2019-05-20T20:09:25.592Z,75.07
2019-05-20T20:14:21.488Z,76.17
2019-05-20T20:19:17.416Z,82.23
2019-05-20T20:24:13.344Z,71.30
2019-05-20T20:29:11.135Z,65.03
2019-05-20T20:34:07.104Z,73.70
2019-05-20T20:39:06.988Z,73.47
2019-05-20T20:44:03.116Z,64.40
2019-05-20T20:48:59.141Z,53.93
2019-05-20T20:53:55.066Z,57.37
2019-05-20T20:58:51.051Z,69.63
2019-05-20T21:03:46.957Z,61.57
2019-05-20T21:08:48.798Z,55.00
2019-05-20T21:13:44.824Z,63.57
2019-05-20T21:18:41.180Z,57.57
2019-05-20T21:23:38.060Z,56.10
2019-05-20T21:28:35.951Z,53.50
2019-05-20T21:33:31.915Z,51.83
2019-05-20T21:38:28.967Z,50.80
2019-05-20T21:43:25.035Z,58.83
2019-05-20T21:48:20.984Z,56.97
2019-05-20T21:53:16.895Z,53.43
2019-05-20T21:58:12.823Z,51.80
2019-05-20T22:03:23.253Z,50.87
2019-05-20T22:08:06.690Z,54.63
2019-05-20T22:13:02.715Z,55.20
2019-05-20T22:17:58.642Z,56.07
2019-05-20T22:28:14.714Z,50.10
2019-05-20T22:33:10.633Z,62.83
2019-05-20T22:38:06.591Z,43.57
2019-05-20T22:43:02.609Z,70.90
2019-05-20T22:47:58.560Z,70.13
2019-05-20T22:52:54.487Z,64.73
2019-05-20T22:57:50.410Z,67.77
2019-05-20T23:02:46.333Z,73.23
2019-05-20T23:07:42.256Z,75.93
2019-05-20T23:12:38.275Z,76.07
2019-05-20T23:17:34.201Z,76.03
2019-05-20T23:22:30.122Z,77.23
2019-05-20T23:27:26.043Z,93.27
2019-05-20T23:32:21.962Z,82.20
2019-05-20T23:37:17.884Z,78.73
2019-05-20T23:42:14.658Z,86.30
2019-05-20T23:47:10.657Z,89.23
2019-05-20T23:52:06.640Z,95.13
2019-05-20T23:57:02.647Z,72.03
